Time;durP1;ratioP1;P1;durP2;ratioP2;P2;SDS_P1;SDS_P2;PMS_P1;PMS_P2;Temp;Humidity;BMP_temperature;BMP_pressure;BME280_temperature;BME280_humidity;BME280_pressure;Samples;Min_cycle;Max_cycle;Signal;HPM_P1;HPM_P2
2021/06/15 00:00:47;149276.00;0.50;258.56;70610.00;0.24;122.81;;;;;23.00;61.00;;;;;;2259974;61;1935;-77
2021/06/15 00:03:13;0.00;0.00;0.62;0.00;0.00;0.62;;;;;23.00;61.00;;;;;;2259863;61;953;-77
2021/06/15 00:05:39;0.00;0.00;0.62;0.00;0.00;0.62;;;;;22.90;61.10;;;;;;2260096;61;977;-76
2021/06/15 00:08:04;0.00;0.00;0.62;0.00;0.00;0.62;;;;;22.90;61.10;;;;;;2259909;61;871;-77
2021/06/15 00:10:30;0.00;0.00;0.62;0.00;0.00;0.62;;;;;22.90;61.10;;;;;;2256099;61;911;-77
2021/06/15 00:12:56;0.00;0.00;0.62;0.00;0.00;0.62;;;;;22.90;60.90;;;;;;2260306;61;974;-77
2021/06/15 00:15:22;0.00;0.00;0.62;0.00;0.00;0.62;;;;;22.90;60.70;;;;;;2256326;61;970;-77
2021/06/15 00:17:47;0.00;0.00;0.62;0.00;0.00;0.62;;;;;22.90;60.60;;;;;;2259793;61;1136;-77
2021/06/15 00:20:13;0.00;0.00;0.62;0.00;0.00;0.62;;;;;22.90;60.70;;;;;;2259667;61;1949;-77
2021/06/15 00:22:40;0.00;0.00;0.62;0.00;0.00;0.62;;;;;22.90;60.70;;;;;;2259998;61;907;-77
2021/06/15 00:25:06;0.00;0.00;0.62;0.00;0.00;0.62;;;;;22.90;60.60;;;;;;2260039;61;912;-77
2021/06/15 00:27:31;0.00;0.00;0.62;0.00;0.00;0.62;;;;;22.80;60.90;;;;;;2260111;61;915;-77
2021/06/15 00:29:57;0.00;0.00;0.62;0.00;0.00;0.62;;;;;22.80;60.90;;;;;;2259790;61;984;-77
2021/06/15 00:32:23;0.00;0.00;0.62;0.00;0.00;0.62;;;;;22.80;60.90;;;;;;2259719;61;931;-77
2021/06/15 00:34:48;64532.00;0.22;112.31;0.00;0.00;0.62;;;;;22.80;60.90;;;;;;2259681;61;1321;-77
2021/06/15 00:37:14;49360.00;0.16;86.08;0.00;0.00;0.62;;;;;22.80;60.70;;;;;;2259862;61;911;-77
2021/06/15 00:39:40;0.00;0.00;0.62;0.00;0.00;0.62;;;;;22.80;60.90;;;;;;2260118;61;2008;-77
2021/06/15 00:42:06;0.00;0.00;0.62;0.00;0.00;0.62;;;;;22.80;61.00;;;;;;2259803;61;1016;-77
2021/06/15 00:44:35;0.00;0.00;0.62;0.00;0.00;0.62;;;;;22.80;60.90;;;;;;2259928;61;920;-77
2021/06/15 00:47:02;0.00;0.00;0.62;0.00;0.00;0.62;;;;;22.80;61.00;;;;;;2259734;61;847;-77
2021/06/15 00:49:31;0.00;0.00;0.62;0.00;0.00;0.62;;;;;22.80;61.00;;;;;;2256069;61;1093;-77
2021/06/15 00:51:56;0.00;0.00;0.62;0.00;0.00;0.62;;;;;22.80;60.90;;;;;;2255918;61;1047;-77
2021/06/15 00:54:25;0.00;0.00;0.62;0.00;0.00;0.62;;;;;22.70;61.00;;;;;;2256190;61;991;-77
2021/06/15 00:56:51;0.00;0.00;0.62;0.00;0.00;0.62;;;;;22.70;61.10;;;;;;2259973;61;941;-77
2021/06/15 00:59:17;0.00;0.00;0.62;0.00;0.00;0.62;;;;;22.70;61.10;;;;;;2259406;61;2010;-77
2021/06/15 01:01:43;0.00;0.00;0.62;0.00;0.00;0.62;;;;;22.70;61.10;;;;;;2255991;61;934;-77
2021/06/15 01:04:08;33189.00;0.11;58.10;0.00;0.00;0.62;;;;;22.70;61.10;;;;;;2259756;61;916;-77
2021/06/15 01:07:29;0.00;0.00;0.62;0.00;0.00;0.62;;;;;22.70;61.10;;;;;;2255268;61;1145;-77
2021/06/15 01:10:00;0.00;0.00;0.62;0.00;0.00;0.62;;;;;22.70;61.00;;;;;;2255278;61;1471;-77
2021/06/15 01:12:41;0.00;0.00;0.62;0.00;0.00;0.62;;;;;22.60;61.10;;;;;;2252563;61;1572;-77
2021/06/15 01:15:15;33758.00;0.11;59.09;0.00;0.00;0.62;;;;;22.60;61.20;;;;;;2260068;61;918;-77
2021/06/15 01:18:06;0.00;0.00;0.62;0.00;0.00;0.62;;;;;22.60;61.10;;;;;;2256155;61;896;-76
2021/06/15 01:20:54;100285.00;0.33;174.06;0.00;0.00;0.62;;;;;22.50;61.20;;;;;;2255845;61;1992;-77
2021/06/15 01:23:49;0.00;0.00;0.62;0.00;0.00;0.62;;;;;22.50;61.20;;;;;;2255754;61;1325;-77
2021/06/15 01:26:41;128548.00;0.43;222.83;41602.00;0.14;72.66;;;;;22.50;61.00;;;;;;2256254;61;982;-77
2021/06/15 01:29:14;0.00;0.00;0.62;0.00;0.00;0.62;;;;;22.50;61.00;;;;;;2255725;61;907;-77
2021/06/15 01:31:47;0.00;0.00;0.62;0.00;0.00;0.62;;;;;22.40;61.10;;;;;;2255633;61;999;-77
2021/06/15 01:34:27;0.00;0.00;0.62;0.00;0.00;0.62;;;;;22.40;61.10;;;;;;2259586;61;930;-77
2021/06/15 01:37:14;0.00;0.00;0.62;0.00;0.00;0.62;;;;;22.40;61.10;;;;;;2255737;61;1060;-77
2021/06/15 01:40:13;0.00;0.00;0.62;0.00;0.00;0.62;;;;;22.50;61.00;;;;;;2259545;61;2012;-77
2021/06/15 01:42:49;0.00;0.00;0.62;0.00;0.00;0.62;;;;;22.40;61.10;;;;;;2256376;61;828;-77
2021/06/15 01:45:21;0.00;0.00;0.62;0.00;0.00;0.62;;;;;22.40;61.00;;;;;;2255563;61;978;-77
2021/06/15 01:48:06;0.00;0.00;0.62;0.00;0.00;0.62;;;;;22.40;61.10;;;;;;2255723;61;1078;-77
2021/06/15 01:50:36;0.00;0.00;0.62;0.00;0.00;0.62;;;;;22.40;61.20;;;;;;2255457;61;942;-77
2021/06/15 01:53:05;0.00;0.00;0.62;0.00;0.00;0.62;;;;;22.40;61.10;;;;;;2259416;61;1049;-78
2021/06/15 01:55:31;0.00;0.00;0.62;0.00;0.00;0.62;;;;;22.40;60.90;;;;;;2255726;61;1725;-77
2021/06/15 01:57:57;0.00;0.00;0.62;0.00;0.00;0.62;;;;;22.40;61.00;;;;;;2255749;61;848;-78
2021/06/15 02:00:22;57769.00;0.19;100.62;0.00;0.00;0.62;;;;;22.40;61.20;;;;;;2255521;61;1998;-77
2021/06/15 02:02:48;0.00;0.00;0.62;0.00;0.00;0.62;;;;;22.40;61.20;;;;;;2258887;61;1061;-77
2021/06/15 02:05:14;0.00;0.00;0.62;0.00;0.00;0.62;;;;;22.40;61.40;;;;;;2255214;61;1065;-77
2021/06/15 02:07:42;0.00;0.00;0.62;0.00;0.00;0.62;;;;;22.30;61.40;;;;;;2255597;61;939;-77
2021/06/15 02:10:10;0.00;0.00;0.62;0.00;0.00;0.62;;;;;22.30;61.40;;;;;;2255833;61;887;-77
2021/06/15 02:12:40;0.00;0.00;0.62;0.00;0.00;0.62;;;;;22.30;61.50;;;;;;2259450;61;955;-77
2021/06/15 02:15:10;0.00;0.00;0.62;0.00;0.00;0.62;;;;;22.30;61.50;;;;;;2256188;61;884;-77
2021/06/15 02:17:38;0.00;0.00;0.62;0.00;0.00;0.62;;;;;22.30;61.60;;;;;;2258904;61;796;-77
2021/06/15 02:20:05;0.00;0.00;0.62;0.00;0.00;0.62;;;;;22.30;61.50;;;;;;2255647;61;1947;-77
2021/06/15 02:22:31;0.00;0.00;0.62;0.00;0.00;0.62;;;;;22.30;61.50;;;;;;2255459;61;1044;-77
2021/06/15 02:24:59;0.00;0.00;0.62;0.00;0.00;0.62;;;;;22.30;61.40;;;;;;2255534;61;1003;-77
2021/06/15 02:27:25;0.00;0.00;0.62;0.00;0.00;0.62;;;;;22.30;61.40;;;;;;2255442;61;1352;-77
2021/06/15 02:29:54;14293.00;0.05;25.39;0.00;0.00;0.62;;;;;22.20;61.50;;;;;;2255531;61;924;-76
2021/06/15 02:32:22;0.00;0.00;0.62;0.00;0.00;0.62;;;;;22.20;61.60;;;;;;2255459;61;937;-77
2021/06/15 02:34:49;0.00;0.00;0.62;0.00;0.00;0.62;;;;;22.20;61.50;;;;;;2255521;61;892;-77
2021/06/15 02:37:17;12182.00;0.04;21.73;0.00;0.00;0.62;;;;;22.20;61.50;;;;;;2255471;61;904;-77
2021/06/15 02:39:42;209700.00;0.70;362.62;89017.00;0.30;154.61;;;;;22.20;61.20;;;;;;2255746;61;1931;-77
2021/06/15 02:42:10;0.00;0.00;0.62;0.00;0.00;0.62;;;;;22.20;61.00;;;;;;2255522;61;927;-77
2021/06/15 02:44:37;0.00;0.00;0.62;0.00;0.00;0.62;;;;;22.20;61.00;;;;;;2255442;61;937;-77
2021/06/15 02:47:03;0.00;0.00;0.62;0.00;0.00;0.62;;;;;22.20;61.00;;;;;;2255456;61;1034;-78
2021/06/15 02:49:30;0.00;0.00;0.62;0.00;0.00;0.62;;;;;22.20;61.00;;;;;;2255726;61;985;-77
2021/06/15 02:52:04;0.00;0.00;0.62;0.00;0.00;0.62;;;;;22.10;61.10;;;;;;2259349;61;910;-77
2021/06/15 02:54:32;0.00;0.00;0.62;0.00;0.00;0.62;;;;;22.10;61.10;;;;;;2259309;61;1031;-77
2021/06/15 02:56:58;0.00;0.00;0.62;0.00;0.00;0.62;;;;;22.10;61.10;;;;;;2255528;61;891;-77
2021/06/15 02:59:23;0.00;0.00;0.62;0.00;0.00;0.62;;;;;22.10;61.20;;;;;;2255774;61;2010;-77
2021/06/15 03:01:50;0.00;0.00;0.62;0.00;0.00;0.62;;;;;22.10;61.20;;;;;;2255490;61;882;-77
2021/06/15 03:04:15;0.00;0.00;0.62;0.00;0.00;0.62;;;;;22.00;61.20;;;;;;2259735;61;903;-77
2021/06/15 03:06:41;0.00;0.00;0.62;0.00;0.00;0.62;;;;;22.10;61.20;;;;;;2259358;61;946;-77
2021/06/15 03:09:07;0.00;0.00;0.62;0.00;0.00;0.62;;;;;22.10;61.20;;;;;;2259216;61;1048;-77
2021/06/15 03:11:33;0.00;0.00;0.62;0.00;0.00;0.62;;;;;22.10;61.10;;;;;;2259917;61;920;-77
2021/06/15 03:14:05;34130.00;0.11;59.73;0.00;0.00;0.62;;;;;22.10;61.20;;;;;;2256184;61;1021;-77
2021/06/15 03:16:31;0.00;0.00;0.62;0.00;0.00;0.62;;;;;22.00;61.20;;;;;;2256164;61;908;-77
2021/06/15 03:19:02;0.00;0.00;0.62;0.00;0.00;0.62;;;;;22.00;61.20;;;;;;2256138;61;1117;-77
2021/06/15 03:21:33;0.00;0.00;0.62;0.00;0.00;0.62;;;;;21.80;61.40;;;;;;2259877;61;2021;-77
2021/06/15 03:24:03;334418.00;1.11;577.08;40314.00;0.13;70.43;;;;;21.30;62.10;;;;;;2256158;61;931;-76
2021/06/15 03:26:47;0.00;0.00;0.62;0.00;0.00;0.62;;;;;21.10;63.00;;;;;;2256035;61;969;-77
2021/06/15 03:29:18;0.00;0.00;0.62;0.00;0.00;0.62;;;;;20.90;63.60;;;;;;2256270;61;604;-77
2021/06/15 03:31:43;0.00;0.00;0.62;0.00;0.00;0.62;;;;;20.90;63.70;;;;;;2256257;61;1701;-76
2021/06/15 03:34:09;212979.00;0.71;368.26;57523.00;0.19;100.19;;;;;20.90;63.40;;;;;;2256175;61;805;-76
2021/06/15 03:36:36;265634.00;0.89;458.84;57564.00;0.19;100.27;;;;;20.70;64.10;;;;;;2256008;61;857;-77
2021/06/15 03:39:02;0.00;0.00;0.62;0.00;0.00;0.62;;;;;20.50;64.50;;;;;;2256285;61;1054;-76
2021/06/15 03:41:28;128641.00;0.43;222.99;56227.00;0.19;97.95;;;;;20.50;64.90;;;;;;2255996;61;1959;-76
2021/06/15 03:43:56;0.00;0.00;0.62;0.00;0.00;0.62;;;;;20.50;64.70;;;;;;2256246;61;1002;-77
2021/06/15 03:46:22;0.00;0.00;0.62;0.00;0.00;0.62;;;;;20.40;64.90;;;;;;2256092;61;939;-76
2021/06/15 03:48:49;69251.00;0.23;120.47;0.00;0.00;0.62;;;;;20.50;64.70;;;;;;2256045;61;1109;-76
2021/06/15 03:51:35;0.00;0.00;0.62;0.00;0.00;0.62;;;;;20.50;64.50;;;;;;2256070;61;971;-76
2021/06/15 03:54:10;217539.00;0.73;376.11;41309.00;0.14;72.15;;;;;20.30;64.90;;;;;;2256652;61;816;-76
2021/06/15 03:56:41;0.00;0.00;0.62;0.00;0.00;0.62;;;;;20.40;64.50;;;;;;2256276;61;1064;-77
2021/06/15 03:59:07;0.00;0.00;0.62;0.00;0.00;0.62;;;;;20.40;64.20;;;;;;2255857;61;969;-76
2021/06/15 04:01:36;222971.00;0.74;385.46;0.00;0.00;0.62;;;;;20.40;64.50;;;;;;2256041;61;1951;-76
2021/06/15 04:04:04;125853.00;0.42;218.18;0.00;0.00;0.62;;;;;20.30;64.30;;;;;;2256104;61;1001;-77
2021/06/15 04:06:31;111768.00;0.37;193.88;0.00;0.00;0.62;;;;;20.30;64.30;;;;;;2256191;61;930;-77
2021/06/15 04:09:01;0.00;0.00;0.62;0.00;0.00;0.62;;;;;20.10;65.00;;;;;;2256010;61;989;-77
2021/06/15 04:11:27;0.00;0.00;0.62;0.00;0.00;0.62;;;;;20.00;65.50;;;;;;2256105;61;927;-76
2021/06/15 04:13:53;55241.00;0.18;96.25;0.00;0.00;0.62;;;;;20.00;65.20;;;;;;2252661;61;1406;-77
2021/06/15 04:16:19;0.00;0.00;0.62;0.00;0.00;0.62;;;;;20.10;65.10;;;;;;2255949;61;995;-77
2021/06/15 04:18:45;0.00;0.00;0.62;0.00;0.00;0.62;;;;;20.20;64.60;;;;;;2256491;61;1160;-77
2021/06/15 04:21:11;0.00;0.00;0.62;0.00;0.00;0.62;;;;;20.00;64.70;;;;;;2255497;61;2012;-76
2021/06/15 04:23:45;97056.00;0.32;168.49;0.00;0.00;0.62;;;;;20.00;65.40;;;;;;2255967;61;906;-77
2021/06/15 04:26:11;0.00;0.00;0.62;0.00;0.00;0.62;;;;;19.80;66.00;;;;;;2256066;61;1325;-77
2021/06/15 04:28:38;69354.00;0.23;120.64;0.00;0.00;0.62;;;;;19.60;67.10;;;;;;2257202;61;1879;-81
2021/06/15 04:31:03;0.00;0.00;0.62;0.00;0.00;0.62;;;;;19.70;67.20;;;;;;2262871;61;964;-84
2021/06/15 04:33:29;0.00;0.00;0.62;0.00;0.00;0.62;;;;;19.70;67.10;;;;;;2258634;61;914;-82
2021/06/15 04:35:56;0.00;0.00;0.62;0.00;0.00;0.62;;;;;19.70;67.20;;;;;;2258617;61;871;-81
2021/06/15 04:38:33;137350.00;0.46;238.00;68953.00;0.23;119.95;;;;;19.80;67.10;;;;;;2258059;61;1006;-82
2021/06/15 04:41:23;160592.00;0.54;278.06;0.00;0.00;0.62;;;;;19.80;67.60;;;;;;2257774;61;1994;-82
2021/06/15 04:43:51;0.00;0.00;0.62;0.00;0.00;0.62;;;;;19.70;67.70;;;;;;2254912;61;2112;-82
2021/06/15 04:46:19;41371.00;0.14;72.26;0.00;0.00;0.62;;;;;19.70;67.80;;;;;;2258283;61;907;-82
2021/06/15 04:48:49;350943.00;1.17;605.48;0.00;0.00;0.62;;;;;19.70;68.00;;;;;;2262179;61;871;-82
2021/06/15 04:51:14;355054.00;1.18;612.55;145742.00;0.49;252.47;;;;;19.90;67.30;;;;;;2258964;61;1030;-82
2021/06/15 04:53:42;204131.00;0.68;353.03;0.00;0.00;0.62;;;;;19.90;67.20;;;;;;2258872;61;1083;-81
2021/06/15 04:56:08;386256.00;1.29;666.18;98647.00;0.33;171.24;;;;;20.00;67.20;;;;;;2258641;61;1122;-79
2021/06/15 04:58:34;8530.00;0.03;15.40;0.00;0.00;0.62;;;;;19.80;68.40;;;;;;2261766;61;982;-78
2021/06/15 05:01:00;118309.00;0.39;205.17;0.00;0.00;0.62;;;;;19.70;68.40;;;;;;2261734;61;2008;-80
2021/06/15 05:03:30;632374.00;2.11;1090.15;0.00;0.00;0.62;;;;;19.80;67.80;;;;;;2258614;61;928;-80
2021/06/15 05:05:57;0.00;0.00;0.62;0.00;0.00;0.62;;;;;19.60;68.70;;;;;;2258816;61;944;-81
2021/06/15 05:08:24;0.00;0.00;0.62;0.00;0.00;0.62;;;;;19.90;67.40;;;;;;2263066;61;1066;-81
2021/06/15 05:10:50;397513.00;1.33;685.53;25736.00;0.09;45.20;;;;;19.90;68.00;;;;;;2258837;61;1502;-82
2021/06/15 05:13:16;61979.00;0.21;107.90;0.00;0.00;0.62;;;;;20.10;67.70;;;;;;2258420;61;903;-80
2021/06/15 05:15:44;72044.00;0.24;125.29;0.00;0.00;0.62;;;;;20.30;67.20;;;;;;2258239;61;874;-84
2021/06/15 05:18:10;627249.00;2.09;1081.29;211428.00;0.70;365.59;;;;;20.30;67.60;;;;;;2259150;61;833;-82
2021/06/15 05:20:35;151930.00;0.51;263.13;0.00;0.00;0.62;;;;;20.50;67.10;;;;;;2261795;61;1998;-85
2021/06/15 05:23:06;9325.00;0.03;16.78;0.00;0.00;0.62;;;;;20.50;67.10;;;;;;2258297;61;863;-86
2021/06/15 05:25:31;363677.00;1.21;627.37;117760.00;0.39;204.22;;;;;20.50;66.40;;;;;;2258568;61;877;-83
2021/06/15 05:27:57;0.00;0.00;0.62;0.00;0.00;0.62;;;;;20.50;66.40;;;;;;2258497;61;929;-82
2021/06/15 05:30:23;109108.00;0.36;189.29;0.00;0.00;0.62;;;;;20.40;67.10;;;;;;2262101;61;1094;-78
2021/06/15 05:32:49;671530.00;2.24;1157.90;157751.00;0.53;273.16;;;;;20.60;67.20;;;;;;2256543;61;1074;-78
2021/06/15 05:35:15;0.00;0.00;0.62;0.00;0.00;0.62;;;;;20.60;68.00;;;;;;2259184;61;918;-79
2021/06/15 05:37:41;0.00;0.00;0.62;0.00;0.00;0.62;;;;;20.60;67.80;;;;;;2259835;61;867;-78
2021/06/15 05:40:07;0.00;0.00;0.62;0.00;0.00;0.62;;;;;20.60;67.30;;;;;;2255640;61;2009;-78
2021/06/15 05:42:32;0.00;0.00;0.62;0.00;0.00;0.62;;;;;20.60;67.60;;;;;;2256160;61;959;-78
2021/06/15 05:44:58;0.00;0.00;0.62;0.00;0.00;0.62;;;;;20.50;67.70;;;;;;2260575;61;828;-79
2021/06/15 05:47:24;50252.00;0.17;87.62;0.00;0.00;0.62;;;;;20.40;68.20;;;;;;2259704;61;950;-78
2021/06/15 05:49:50;0.00;0.00;0.62;0.00;0.00;0.62;;;;;20.40;68.50;;;;;;2255957;61;1002;-78
2021/06/15 05:52:15;0.00;0.00;0.62;0.00;0.00;0.62;;;;;20.70;67.70;;;;;;2259313;61;1002;-78
2021/06/15 05:54:41;0.00;0.00;0.62;0.00;0.00;0.62;;;;;20.90;67.30;;;;;;2255358;61;1598;-78
2021/06/15 05:57:07;0.00;0.00;0.62;0.00;0.00;0.62;;;;;21.00;66.30;;;;;;2255625;61;958;-77
2021/06/15 05:59:32;0.00;0.00;0.62;0.00;0.00;0.62;;;;;20.90;66.50;;;;;;2259746;61;1997;-78
2021/06/15 06:01:58;0.00;0.00;0.62;0.00;0.00;0.62;;;;;21.00;66.20;;;;;;2255755;61;856;-78
2021/06/15 06:04:26;0.00;0.00;0.62;0.00;0.00;0.62;;;;;20.90;67.20;;;;;;2259592;61;998;-77
2021/06/15 06:09:37;0.00;0.00;0.62;0.00;0.00;0.62;;;;;20.70;67.20;;;;;;2256092;61;795;-78
2021/06/15 06:12:03;248000.00;0.83;428.51;0.00;0.00;0.62;;;;;20.80;66.90;;;;;;2259335;61;1118;-78
2021/06/15 06:14:29;77359.00;0.26;134.48;0.00;0.00;0.62;;;;;20.80;67.40;;;;;;2252449;61;1240;-78
2021/06/15 06:16:54;0.00;0.00;0.62;0.00;0.00;0.62;;;;;20.90;67.10;;;;;;2259509;61;1043;-78
2021/06/15 06:19:20;0.00;0.00;0.62;0.00;0.00;0.62;;;;;20.80;68.00;;;;;;2255795;61;958;-78
2021/06/15 06:21:46;120132.00;0.40;208.31;0.00;0.00;0.62;;;;;20.80;67.60;;;;;;2255505;61;2046;-78
2021/06/15 06:24:12;0.00;0.00;0.62;0.00;0.00;0.62;;;;;20.90;66.90;;;;;;2259501;61;1041;-78
2021/06/15 06:26:38;0.00;0.00;0.62;0.00;0.00;0.62;;;;;21.00;66.40;;;;;;2255643;61;874;-78
2021/06/15 06:29:04;347615.00;1.16;599.76;54194.00;0.18;94.44;;;;;20.90;67.30;;;;;;2259589;61;905;-78
2021/06/15 06:31:30;0.00;0.00;0.62;0.00;0.00;0.62;;;;;20.90;67.60;;;;;;2255550;61;1046;-78
2021/06/15 06:33:55;340213.00;1.13;587.04;191017.00;0.64;330.46;;;;;20.90;67.60;;;;;;2255450;61;965;-77
2021/06/15 06:36:21;0.00;0.00;0.62;0.00;0.00;0.62;;;;;20.90;67.60;;;;;;2255867;61;880;-77
2021/06/15 06:38:51;358602.00;1.20;618.65;286250.00;0.95;494.28;;;;;20.90;67.60;;;;;;2259353;61;867;-77
2021/06/15 06:41:20;311996.00;1.04;538.54;133420.00;0.44;231.23;;;;;21.00;67.30;;;;;;2260571;61;2010;-78
2021/06/15 06:43:49;240283.00;0.80;415.24;0.00;0.00;0.62;;;;;20.90;67.40;;;;;;2257040;61;974;-86
2021/06/15 06:46:14;131652.00;0.44;228.18;0.00;0.00;0.62;;;;;20.80;68.10;;;;;;2257163;61;941;-78
2021/06/15 06:48:40;0.00;0.00;0.62;0.00;0.00;0.62;;;;;20.90;68.60;;;;;;2260640;61;1079;-78
2021/06/15 06:51:05;0.00;0.00;0.62;0.00;0.00;0.62;;;;;21.00;67.60;;;;;;2256928;61;978;-82
2021/06/15 06:53:35;92830.00;0.31;161.19;0.00;0.00;0.62;;;;;21.10;67.40;;;;;;2258860;61;1748;-82
2021/06/15 06:56:00;156332.00;0.52;270.72;0.00;0.00;0.62;;;;;21.20;67.30;;;;;;2258480;61;933;-83
2021/06/15 06:58:26;31724.00;0.11;55.57;0.00;0.00;0.62;;;;;21.20;68.00;;;;;;2261891;61;836;-83
2021/06/15 07:00:51;0.00;0.00;0.62;0.00;0.00;0.62;;;;;21.20;67.10;;;;;;2261952;61;2011;-81
2021/06/15 07:03:17;0.00;0.00;0.62;0.00;0.00;0.62;;;;;21.30;66.70;;;;;;2261849;61;806;-82
2021/06/15 07:05:43;242070.00;0.81;418.31;141895.00;0.47;245.84;;;;;21.40;66.40;;;;;;2261924;61;921;-83
2021/06/15 07:08:08;192532.00;0.64;333.07;38143.00;0.13;66.68;;;;;21.40;67.20;;;;;;2262568;61;900;-82
2021/06/15 07:10:34;40984.00;0.14;71.59;0.00;0.00;0.62;;;;;21.50;66.50;;;;;;2262376;61;1018;-83
2021/06/15 07:13:00;0.00;0.00;0.62;0.00;0.00;0.62;;;;;21.60;66.40;;;;;;2257810;61;1019;-79
2021/06/15 07:15:25;54825.00;0.18;95.53;0.00;0.00;0.62;;;;;21.60;65.60;;;;;;2257152;61;990;-80
2021/06/15 07:17:51;0.00;0.00;0.62;0.00;0.00;0.62;;;;;21.70;66.30;;;;;;2260331;61;917;-80
2021/06/15 07:20:17;56185.00;0.19;97.88;0.00;0.00;0.62;;;;;21.70;67.10;;;;;;2261608;61;1990;-80
2021/06/15 07:22:42;0.00;0.00;0.62;0.00;0.00;0.62;;;;;21.70;65.40;;;;;;2258120;61;1103;-80
2021/06/15 07:25:09;171722.00;0.57;297.23;88856.00;0.30;154.33;;;;;21.80;65.20;;;;;;2261659;61;1010;-81
2021/06/15 07:27:34;145020.00;0.48;251.22;0.00;0.00;0.62;;;;;21.80;64.90;;;;;;2257940;61;1088;-81
2021/06/15 07:30:00;19946.00;0.07;35.18;0.00;0.00;0.62;;;;;21.80;64.60;;;;;;2261456;61;1112;-86
2021/06/15 07:32:25;612329.00;2.04;1055.51;0.00;0.00;0.62;;;;;21.90;64.20;;;;;;2257077;61;1117;-80
2021/06/15 07:34:51;96843.00;0.32;168.12;0.00;0.00;0.62;;;;;21.90;63.70;;;;;;2260360;61;1014;-83
2021/06/15 07:37:17;243808.00;0.81;421.30;0.00;0.00;0.62;;;;;22.00;63.20;;;;;;2257875;61;936;-81
2021/06/15 07:39:42;84908.00;0.28;147.51;0.00;0.00;0.62;;;;;22.10;62.10;;;;;;2256788;61;1943;-80
2021/06/15 07:42:08;5692.00;0.02;10.48;0.00;0.00;0.62;;;;;22.10;63.30;;;;;;2260348;61;905;-80
2021/06/15 07:44:34;0.00;0.00;0.62;0.00;0.00;0.62;;;;;22.10;63.30;;;;;;2260933;61;977;-82
2021/06/15 07:47:00;111839.00;0.37;194.00;0.00;0.00;0.62;;;;;22.20;63.60;;;;;;2261811;61;1046;-84
2021/06/15 07:49:26;39970.00;0.13;69.84;0.00;0.00;0.62;;;;;22.30;63.40;;;;;;2261087;61;983;-79
2021/06/15 07:51:52;207079.00;0.69;358.11;0.00;0.00;0.62;;;;;22.40;62.70;;;;;;2261597;61;881;-79
2021/06/15 07:54:17;77982.00;0.26;135.55;0.00;0.00;0.62;;;;;22.40;62.50;;;;;;2257876;61;935;-82
2021/06/15 07:56:43;123107.00;0.41;213.44;0.00;0.00;0.62;;;;;22.40;62.00;;;;;;2258923;61;955;-82
2021/06/15 07:59:08;70437.00;0.23;122.52;0.00;0.00;0.62;;;;;22.50;62.40;;;;;;2262152;61;952;-81
2021/06/15 08:01:34;545469.00;1.82;940.15;0.00;0.00;0.62;;;;;22.50;62.40;;;;;;2259192;61;2026;-85
2021/06/15 08:04:00;59180.00;0.20;103.06;0.00;0.00;0.62;;;;;22.60;62.10;;;;;;2263570;61;928;-89
2021/06/15 08:06:25;369645.00;1.23;637.63;87053.00;0.29;151.22;;;;;22.70;61.80;;;;;;2264209;61;921;-85
2021/06/15 08:08:51;14560.00;0.05;25.85;0.00;0.00;0.62;;;;;22.80;61.50;;;;;;2263670;61;880;-89
2021/06/15 08:11:17;0.00;0.00;0.62;0.00;0.00;0.62;;;;;22.80;61.40;;;;;;2263173;61;956;-83
2021/06/15 08:13:42;0.00;0.00;0.62;0.00;0.00;0.62;;;;;22.80;61.40;;;;;;2258123;61;1125;-80
2021/06/15 08:16:08;0.00;0.00;0.62;0.00;0.00;0.62;;;;;22.90;61.20;;;;;;2263018;61;990;-80
2021/06/15 08:18:33;0.00;0.00;0.62;0.00;0.00;0.62;;;;;22.90;61.10;;;;;;2259478;61;967;-82
2021/06/15 08:20:59;0.00;0.00;0.62;0.00;0.00;0.62;;;;;23.00;61.10;;;;;;2258030;61;1947;-83
2021/06/15 08:23:25;0.00;0.00;0.62;0.00;0.00;0.62;;;;;23.00;61.00;;;;;;2261986;61;926;-81
2021/06/15 08:25:51;98871.00;0.33;171.62;0.00;0.00;0.62;;;;;23.10;61.00;;;;;;2258340;61;989;-84
2021/06/15 08:28:17;0.00;0.00;0.62;0.00;0.00;0.62;;;;;23.10;60.70;;;;;;2262464;61;856;-85
2021/06/15 08:30:42;0.00;0.00;0.62;0.00;0.00;0.62;;;;;23.20;60.60;;;;;;2261990;61;1170;-81
2021/06/15 08:33:08;0.00;0.00;0.62;0.00;0.00;0.62;;;;;23.30;60.20;;;;;;2262082;61;888;-80
2021/06/15 08:35:34;0.00;0.00;0.62;0.00;0.00;0.62;;;;;23.40;60.10;;;;;;2262342;61;955;-88
2021/06/15 08:38:00;7993.00;0.03;14.47;0.00;0.00;0.62;;;;;23.50;60.00;;;;;;2257169;61;839;-84
2021/06/15 08:40:25;196561.00;0.66;340.00;0.00;0.00;0.62;;;;;23.50;59.70;;;;;;2257339;61;2010;-89
2021/06/15 08:42:51;0.00;0.00;0.62;0.00;0.00;0.62;;;;;23.60;59.60;;;;;;2257731;61;1187;-86
2021/06/15 08:45:17;0.00;0.00;0.62;0.00;0.00;0.62;;;;;23.60;59.50;;;;;;2261684;61;1030;-87
2021/06/15 08:47:45;221354.00;0.74;382.67;0.00;0.00;0.62;;;;;23.70;59.50;;;;;;2258124;61;1052;-83
2021/06/15 08:50:13;0.00;0.00;0.62;0.00;0.00;0.62;;;;;23.70;59.40;;;;;;2261710;61;1498;-88
2021/06/15 08:52:39;39540.00;0.13;69.09;0.00;0.00;0.62;;;;;23.80;59.10;;;;;;2260760;61;936;-86
2021/06/15 08:55:06;0.00;0.00;0.62;0.00;0.00;0.62;;;;;23.90;58.90;;;;;;2257678;61;1248;-84
2021/06/15 08:57:36;0.00;0.00;0.62;0.00;0.00;0.62;;;;;23.90;58.90;;;;;;2261706;61;1086;-84
2021/06/15 09:00:02;0.00;0.00;0.62;0.00;0.00;0.62;;;;;24.00;58.70;;;;;;2261641;61;1998;-79
2021/06/15 09:02:28;45137.00;0.15;78.78;0.00;0.00;0.62;;;;;24.00;58.50;;;;;;2262321;61;1044;-85
2021/06/15 09:04:54;0.00;0.00;0.62;0.00;0.00;0.62;;;;;24.00;58.90;;;;;;2257663;61;826;-85
2021/06/15 09:07:20;0.00;0.00;0.62;0.00;0.00;0.62;;;;;23.90;59.10;;;;;;2258974;61;928;-87
2021/06/15 09:09:47;0.00;0.00;0.62;0.00;0.00;0.62;;;;;23.90;59.20;;;;;;2257648;61;960;-87
2021/06/15 09:12:21;0.00;0.00;0.62;0.00;0.00;0.62;;;;;23.90;59.20;;;;;;2258076;61;994;-88
2021/06/15 09:14:54;0.00;0.00;0.62;0.00;0.00;0.62;;;;;23.90;59.20;;;;;;2261580;61;1171;-79
2021/06/15 09:17:27;0.00;0.00;0.62;0.00;0.00;0.62;;;;;24.00;59.00;;;;;;2259938;61;1232;-82
2021/06/15 09:20:13;0.00;0.00;0.62;0.00;0.00;0.62;;;;;24.00;59.00;;;;;;2260020;61;2016;-81
2021/06/15 09:22:39;0.00;0.00;0.62;0.00;0.00;0.62;;;;;24.10;58.90;;;;;;2258899;61;1775;-83
2021/06/15 09:25:06;0.00;0.00;0.62;0.00;0.00;0.62;;;;;24.10;58.70;;;;;;2261692;61;1042;-79
2021/06/15 09:27:35;0.00;0.00;0.62;0.00;0.00;0.62;;;;;24.30;58.40;;;;;;2257687;61;898;-81
2021/06/15 09:30:03;0.00;0.00;0.62;0.00;0.00;0.62;;;;;24.50;58.00;;;;;;2257809;61;879;-81
2021/06/15 09:32:36;0.00;0.00;0.62;0.00;0.00;0.62;;;;;24.60;57.80;;;;;;2258175;61;974;-80
2021/06/15 09:35:04;0.00;0.00;0.62;0.00;0.00;0.62;;;;;24.60;57.60;;;;;;2261892;61;1006;-81
2021/06/15 09:37:46;0.00;0.00;0.62;0.00;0.00;0.62;;;;;24.70;57.40;;;;;;2257857;61;1063;-81
2021/06/15 09:40:24;49784.00;0.17;86.81;0.00;0.00;0.62;;;;;24.80;57.00;;;;;;2261791;61;2018;-81
2021/06/15 09:42:57;0.00;0.00;0.62;0.00;0.00;0.62;;;;;24.80;56.70;;;;;;2258147;61;1510;-86
2021/06/15 09:45:39;0.00;0.00;0.62;0.00;0.00;0.62;;;;;24.90;56.50;;;;;;2253916;61;1389;-86
2021/06/15 09:48:37;0.00;0.00;0.62;0.00;0.00;0.62;;;;;25.00;56.30;;;;;;2258596;61;864;-89
2021/06/15 09:51:04;0.00;0.00;0.62;0.00;0.00;0.62;;;;;25.10;55.90;;;;;;2261796;61;920;-81
2021/06/15 09:53:31;0.00;0.00;0.62;0.00;0.00;0.62;;;;;25.20;55.90;;;;;;2261598;61;958;-82
2021/06/15 09:55:59;0.00;0.00;0.62;0.00;0.00;0.62;;;;;25.20;55.80;;;;;;2261505;61;928;-81
2021/06/15 09:58:47;0.00;0.00;0.62;0.00;0.00;0.62;;;;;25.20;55.50;;;;;;2261788;61;946;-81
2021/06/15 10:01:23;0.00;0.00;0.62;0.00;0.00;0.62;;;;;25.20;55.50;;;;;;2257646;61;2010;-81
2021/06/15 10:04:08;0.00;0.00;0.62;0.00;0.00;0.62;;;;;25.30;55.50;;;;;;2261670;61;939;-81
2021/06/15 10:06:37;0.00;0.00;0.62;0.00;0.00;0.62;;;;;25.30;55.30;;;;;;2261728;61;986;-82
2021/06/15 10:09:03;0.00;0.00;0.62;0.00;0.00;0.62;;;;;25.40;55.30;;;;;;2257944;61;958;-82
2021/06/15 10:11:29;0.00;0.00;0.62;0.00;0.00;0.62;;;;;25.30;55.30;;;;;;2262019;61;951;-82
2021/06/15 10:13:56;0.00;0.00;0.62;0.00;0.00;0.62;;;;;25.40;55.20;;;;;;2258014;61;1483;-82
2021/06/15 10:16:21;0.00;0.00;0.62;0.00;0.00;0.62;;;;;25.40;55.10;;;;;;2258119;61;1057;-82
2021/06/15 10:18:47;0.00;0.00;0.62;0.00;0.00;0.62;;;;;25.40;55.10;;;;;;2258392;61;1172;-82
2021/06/15 10:21:13;0.00;0.00;0.62;0.00;0.00;0.62;;;;;25.50;55.10;;;;;;2261802;61;1943;-83
2021/06/15 10:23:38;0.00;0.00;0.62;0.00;0.00;0.62;;;;;25.60;54.70;;;;;;2254476;61;1855;-82
2021/06/15 10:26:06;0.00;0.00;0.62;0.00;0.00;0.62;;;;;25.60;54.70;;;;;;2257932;61;987;-82
2021/06/15 10:28:32;0.00;0.00;0.62;0.00;0.00;0.62;;;;;25.70;54.60;;;;;;2261552;61;1084;-82
2021/06/15 10:31:02;0.00;0.00;0.62;0.00;0.00;0.62;;;;;25.80;54.20;;;;;;2261476;61;966;-83
2021/06/15 10:33:27;0.00;0.00;0.62;0.00;0.00;0.62;;;;;25.90;53.90;;;;;;2258350;61;876;-82